sensor_id;sensor_type;location;lat;lon;timestamp;pressure;altitude;pressure_sealevel;temperature;humidity
39177;BME280;24904;52.208;21.192;2022-10-16T00:01:57;100642.42;;;14.70;71.34
39177;BME280;24904;52.208;21.192;2022-10-16T00:07:04;100645.43;;;14.69;71.34
39177;BME280;24904;52.208;21.192;2022-10-16T00:12:11;100653.41;;;14.69;71.27
39177;BME280;24904;52.208;21.192;2022-10-16T00:17:21;100653.49;;;14.65;71.14
39177;BME280;24904;52.208;21.192;2022-10-16T00:22:28;100653.89;;;14.68;71.11
39177;BME280;24904;52.208;21.192;2022-10-16T00:27:36;100651.20;;;14.67;71.49
39177;BME280;24904;52.208;21.192;2022-10-16T00:32:43;100655.30;;;14.66;71.54
39177;BME280;24904;52.208;21.192;2022-10-16T00:37:51;100654.76;;;14.65;71.89
39177;BME280;24904;52.208;21.192;2022-10-16T00:42:58;100654.20;;;14.58;72.31
39177;BME280;24904;52.208;21.192;2022-10-16T00:48:08;100650.74;;;14.51;72.72
39177;BME280;24904;52.208;21.192;2022-10-16T00:53:18;100660.60;;;14.46;72.69
39177;BME280;24904;52.208;21.192;2022-10-16T00:58:26;100661.76;;;14.42;72.76
39177;BME280;24904;52.208;21.192;2022-10-16T01:03:35;100661.84;;;14.39;72.69
39177;BME280;24904;52.208;21.192;2022-10-16T01:08:48;100668.95;;;14.38;72.70
39177;BME280;24904;52.208;21.192;2022-10-16T01:14:14;100679.61;;;14.36;72.80
39177;BME280;24904;52.208;21.192;2022-10-16T01:19:36;100688.90;;;14.27;73.25
39177;BME280;24904;52.208;21.192;2022-10-16T01:24:50;100683.77;;;14.27;73.63
39177;BME280;24904;52.208;21.192;2022-10-16T01:30:04;100680.94;;;14.24;73.88
39177;BME280;24904;52.208;21.192;2022-10-16T01:35:21;100676.48;;;14.19;73.98
39177;BME280;24904;52.208;21.192;2022-10-16T01:40:30;100685.73;;;14.14;74.24
39177;BME280;24904;52.208;21.192;2022-10-16T01:45:40;100697.48;;;14.11;74.50
39177;BME280;24904;52.208;21.192;2022-10-16T01:50:54;100694.63;;;14.07;74.61
39177;BME280;24904;52.208;21.192;2022-10-16T01:56:04;100697.38;;;14.04;74.79
39177;BME280;24904;52.208;21.192;2022-10-16T02:01:16;100698.41;;;13.99;75.10
39177;BME280;24904;52.208;21.192;2022-10-16T02:06:27;100690.91;;;13.95;75.51
39177;BME280;24904;52.208;21.192;2022-10-16T02:11:35;100688.35;;;13.92;75.78
39177;BME280;24904;52.208;21.192;2022-10-16T02:16:45;100689.77;;;13.87;76.07
39177;BME280;24904;52.208;21.192;2022-10-16T02:21:56;100689.37;;;13.84;76.14
39177;BME280;24904;52.208;21.192;2022-10-16T02:27:09;100689.34;;;13.78;76.31
39177;BME280;24904;52.208;21.192;2022-10-16T02:32:23;100688.07;;;13.76;76.54
39177;BME280;24904;52.208;21.192;2022-10-16T02:37:35;100679.23;;;13.72;76.66
39177;BME280;24904;52.208;21.192;2022-10-16T02:42:44;100683.10;;;13.68;76.92
39177;BME280;24904;52.208;21.192;2022-10-16T02:47:52;100689.87;;;13.66;77.01
39177;BME280;24904;52.208;21.192;2022-10-16T02:53:00;100686.69;;;13.64;76.95
39177;BME280;24904;52.208;21.192;2022-10-16T02:58:12;100687.63;;;13.61;76.95
39177;BME280;24904;52.208;21.192;2022-10-16T03:03:19;100689.37;;;13.61;77.04
39177;BME280;24904;52.208;21.192;2022-10-16T03:08:27;100697.24;;;13.60;76.95
39177;BME280;24904;52.208;21.192;2022-10-16T03:13:36;100702.75;;;13.56;76.98
39177;BME280;24904;52.208;21.192;2022-10-16T03:18:44;100709.93;;;13.56;77.01
39177;BME280;24904;52.208;21.192;2022-10-16T03:23:55;100716.55;;;13.58;77.06
39177;BME280;24904;52.208;21.192;2022-10-16T03:29:03;100718.14;;;13.59;77.00
39177;BME280;24904;52.208;21.192;2022-10-16T03:34:12;100725.30;;;13.59;76.84
39177;BME280;24904;52.208;21.192;2022-10-16T03:39:21;100734.85;;;13.62;76.90
39177;BME280;24904;52.208;21.192;2022-10-16T03:44:30;100736.91;;;13.63;76.61
39177;BME280;24904;52.208;21.192;2022-10-16T03:49:38;100735.01;;;13.61;76.48
39177;BME280;24904;52.208;21.192;2022-10-16T03:54:46;100732.09;;;13.61;76.42
39177;BME280;24904;52.208;21.192;2022-10-16T03:59:54;100735.83;;;13.65;76.38
39177;BME280;24904;52.208;21.192;2022-10-16T04:05:05;100738.60;;;13.66;76.38
39177;BME280;24904;52.208;21.192;2022-10-16T04:10:14;100741.91;;;13.67;76.21
39177;BME280;24904;52.208;21.192;2022-10-16T04:15:22;100745.77;;;13.67;76.26
39177;BME280;24904;52.208;21.192;2022-10-16T04:20:32;100744.11;;;13.66;76.23
39177;BME280;24904;52.208;21.192;2022-10-16T04:25:41;100735.09;;;13.62;76.12
39177;BME280;24904;52.208;21.192;2022-10-16T04:30:49;100741.55;;;13.61;76.00
39177;BME280;24904;52.208;21.192;2022-10-16T04:36:06;100745.02;;;13.61;76.04
39177;BME280;24904;52.208;21.192;2022-10-16T04:41:12;100747.36;;;13.55;75.99
39177;BME280;24904;52.208;21.192;2022-10-16T04:46:17;100760.45;;;13.56;76.04
39177;BME280;24904;52.208;21.192;2022-10-16T04:59:47;100759.11;;;13.54;76.10
39177;BME280;24904;52.208;21.192;2022-10-16T05:04:50;100774.17;;;13.53;76.16
39177;BME280;24904;52.208;21.192;2022-10-16T05:09:53;100772.90;;;13.54;76.11
39177;BME280;24904;52.208;21.192;2022-10-16T05:14:57;100774.63;;;13.53;76.18
39177;BME280;24904;52.208;21.192;2022-10-16T05:20:00;100775.61;;;13.48;76.19
39177;BME280;24904;52.208;21.192;2022-10-16T05:25:04;100784.28;;;13.48;76.15
39177;BME280;24904;52.208;21.192;2022-10-16T05:30:09;100788.14;;;13.47;76.22
39177;BME280;24904;52.208;21.192;2022-10-16T05:35:12;100798.15;;;13.48;76.30
39177;BME280;24904;52.208;21.192;2022-10-16T05:40:16;100807.45;;;13.48;76.38
39177;BME280;24904;52.208;21.192;2022-10-16T05:45:19;100808.74;;;13.51;76.33
39177;BME280;24904;52.208;21.192;2022-10-16T05:50:22;100801.27;;;13.52;76.21
39177;BME280;24904;52.208;21.192;2022-10-16T05:55:25;100805.08;;;13.55;76.33
39177;BME280;24904;52.208;21.192;2022-10-16T06:00:28;100800.65;;;13.55;76.27
39177;BME280;24904;52.208;21.192;2022-10-16T06:05:31;100807.98;;;13.53;76.24
39177;BME280;24904;52.208;21.192;2022-10-16T06:10:34;100824.38;;;13.53;76.13
39177;BME280;24904;52.208;21.192;2022-10-16T06:15:38;100832.18;;;13.54;76.23
39177;BME280;24904;52.208;21.192;2022-10-16T06:20:43;100839.44;;;13.56;76.07
39177;BME280;24904;52.208;21.192;2022-10-16T06:25:46;100840.65;;;13.61;76.07
39177;BME280;24904;52.208;21.192;2022-10-16T06:30:49;100840.55;;;13.68;75.95
39177;BME280;24904;52.208;21.192;2022-10-16T06:36:06;100842.23;;;13.76;75.85
39177;BME280;24904;52.208;21.192;2022-10-16T06:41:12;100842.14;;;13.86;75.63
39177;BME280;24904;52.208;21.192;2022-10-16T06:46:18;100852.29;;;13.96;75.55
39177;BME280;24904;52.208;21.192;2022-10-16T06:51:23;100855.02;;;14.08;75.35
39177;BME280;24904;52.208;21.192;2022-10-16T06:56:27;100855.37;;;14.15;74.95
39177;BME280;24904;52.208;21.192;2022-10-16T07:01:32;100857.70;;;14.23;74.83
39177;BME280;24904;52.208;21.192;2022-10-16T07:06:35;100860.17;;;14.34;74.74
39177;BME280;24904;52.208;21.192;2022-10-16T07:11:39;100867.64;;;14.43;74.37
39177;BME280;24904;52.208;21.192;2022-10-16T07:16:42;100873.94;;;14.52;74.14
39177;BME280;24904;52.208;21.192;2022-10-16T07:21:45;100884.98;;;14.61;74.03
39177;BME280;24904;52.208;21.192;2022-10-16T07:26:48;100895.83;;;14.64;73.80
39177;BME280;24904;52.208;21.192;2022-10-16T07:31:51;100898.12;;;14.64;73.72
39177;BME280;24904;52.208;21.192;2022-10-16T07:36:54;100898.61;;;14.65;73.77
39177;BME280;24904;52.208;21.192;2022-10-16T07:41:57;100889.36;;;14.65;73.73
39177;BME280;24904;52.208;21.192;2022-10-16T07:47:00;100877.61;;;14.69;73.78
39177;BME280;24904;52.208;21.192;2022-10-16T07:52:04;100879.19;;;14.74;73.77
39177;BME280;24904;52.208;21.192;2022-10-16T07:57:07;100870.45;;;14.84;73.90
39177;BME280;24904;52.208;21.192;2022-10-16T08:02:10;100859.55;;;15.01;73.85
39177;BME280;24904;52.208;21.192;2022-10-16T08:07:50;100851.51;;;15.30;73.79
39177;BME280;24904;52.208;21.192;2022-10-16T08:12:53;100860.98;;;15.57;73.33
39177;BME280;24904;52.208;21.192;2022-10-16T08:17:58;100873.84;;;15.83;72.90
39177;BME280;24904;52.208;21.192;2022-10-16T08:23:02;100875.82;;;16.08;72.27
39177;BME280;24904;52.208;21.192;2022-10-16T08:28:05;100874.95;;;16.30;71.88
39177;BME280;24904;52.208;21.192;2022-10-16T08:33:09;100883.88;;;16.51;71.30
39177;BME280;24904;52.208;21.192;2022-10-16T08:38:12;100895.23;;;16.61;70.75
39177;BME280;24904;52.208;21.192;2022-10-16T08:43:39;100897.98;;;16.69;70.49
39177;BME280;24904;52.208;21.192;2022-10-16T08:48:47;100897.16;;;16.74;69.93
39177;BME280;24904;52.208;21.192;2022-10-16T08:53:53;100900.66;;;16.73;69.97
39177;BME280;24904;52.208;21.192;2022-10-16T08:58:58;100906.54;;;16.71;70.06
39177;BME280;24904;52.208;21.192;2022-10-16T09:04:29;100915.65;;;16.71;69.87
39177;BME280;24904;52.208;21.192;2022-10-16T09:09:52;100915.48;;;16.74;69.93
39177;BME280;24904;52.208;21.192;2022-10-16T09:15:05;100913.63;;;16.80;69.92
39177;BME280;24904;52.208;21.192;2022-10-16T09:20:22;100919.38;;;16.84;69.84
39177;BME280;24904;52.208;21.192;2022-10-16T09:25:27;100914.14;;;16.86;69.81
39177;BME280;24904;52.208;21.192;2022-10-16T09:30:31;100916.42;;;17.02;69.87
39177;BME280;24904;52.208;21.192;2022-10-16T09:35:37;100901.77;;;17.21;69.53
39177;BME280;24904;52.208;21.192;2022-10-16T09:40:43;100894.08;;;17.42;69.25
39177;BME280;24904;52.208;21.192;2022-10-16T09:45:55;100903.98;;;17.63;69.06
39177;BME280;24904;52.208;21.192;2022-10-16T09:51:01;100898.52;;;17.80;68.78
39177;BME280;24904;52.208;21.192;2022-10-16T09:56:05;100899.84;;;17.97;68.30
39177;BME280;24904;52.208;21.192;2022-10-16T10:01:14;100902.35;;;18.01;67.88
39177;BME280;24904;52.208;21.192;2022-10-16T10:06:23;100907.13;;;18.06;67.93
39177;BME280;24904;52.208;21.192;2022-10-16T10:11:46;100908.94;;;18.14;67.85
39177;BME280;24904;52.208;21.192;2022-10-16T10:16:52;100895.77;;;18.27;67.73
39177;BME280;24904;52.208;21.192;2022-10-16T10:21:56;100903.41;;;18.38;67.51
39177;BME280;24904;52.208;21.192;2022-10-16T10:27:06;100912.55;;;18.45;67.10
39177;BME280;24904;52.208;21.192;2022-10-16T10:32:20;100905.77;;;18.40;66.87
39177;BME280;24904;52.208;21.192;2022-10-16T10:37:41;100906.05;;;18.43;66.86
39177;BME280;24904;52.208;21.192;2022-10-16T10:42:55;100893.48;;;18.45;66.95
39177;BME280;24904;52.208;21.192;2022-10-16T10:48:15;100891.77;;;18.49;66.78
39177;BME280;24904;52.208;21.192;2022-10-16T10:53:36;100878.90;;;18.53;66.80
39177;BME280;24904;52.208;21.192;2022-10-16T10:59:08;100881.80;;;18.56;66.73
39177;BME280;24904;52.208;21.192;2022-10-16T11:04:41;100884.92;;;18.61;66.97
39177;BME280;24904;52.208;21.192;2022-10-16T11:09:51;100886.07;;;18.65;66.90
39177;BME280;24904;52.208;21.192;2022-10-16T11:15:00;100877.38;;;18.74;66.81
39177;BME280;24904;52.208;21.192;2022-10-16T11:20:13;100872.79;;;18.83;66.69
39177;BME280;24904;52.208;21.192;2022-10-16T11:25:21;100876.45;;;18.89;66.46
39177;BME280;24904;52.208;21.192;2022-10-16T11:30:28;100877.84;;;18.91;66.09
39177;BME280;24904;52.208;21.192;2022-10-16T11:35:39;100884.67;;;18.91;65.79
39177;BME280;24904;52.208;21.192;2022-10-16T11:40:49;100882.05;;;18.92;65.71
39177;BME280;24904;52.208;21.192;2022-10-16T11:45:58;100884.32;;;18.94;65.58
39177;BME280;24904;52.208;21.192;2022-10-16T11:51:11;100891.08;;;18.94;65.39
39177;BME280;24904;52.208;21.192;2022-10-16T11:56:20;100889.68;;;18.96;65.42
39177;BME280;24904;52.208;21.192;2022-10-16T12:01:29;100884.60;;;19.02;65.49
39177;BME280;24904;52.208;21.192;2022-10-16T12:06:39;100877.90;;;19.08;65.42
39177;BME280;24904;52.208;21.192;2022-10-16T12:11:44;100877.09;;;19.14;65.45
39177;BME280;24904;52.208;21.192;2022-10-16T12:16:57;100878.70;;;19.19;65.28
39177;BME280;24904;52.208;21.192;2022-10-16T12:22:03;100875.02;;;19.20;64.95
39177;BME280;24904;52.208;21.192;2022-10-16T12:27:22;100875.10;;;19.19;64.87
39177;BME280;24904;52.208;21.192;2022-10-16T12:32:31;100878.92;;;19.19;64.70
39177;BME280;24904;52.208;21.192;2022-10-16T12:37:36;100891.29;;;19.17;64.50
39177;BME280;24904;52.208;21.192;2022-10-16T12:42:41;100892.28;;;19.14;64.39
39177;BME280;24904;52.208;21.192;2022-10-16T12:47:50;100893.73;;;19.12;64.58
39177;BME280;24904;52.208;21.192;2022-10-16T12:52:56;100894.38;;;19.11;64.83
39177;BME280;24904;52.208;21.192;2022-10-16T12:58:11;100903.56;;;19.09;64.65
39177;BME280;24904;52.208;21.192;2022-10-16T13:09:17;100911.14;;;19.04;64.84
39177;BME280;24904;52.208;21.192;2022-10-16T13:14:42;100908.90;;;18.99;64.90
39177;BME280;24904;52.208;21.192;2022-10-16T13:19:59;100910.73;;;18.98;64.70
39177;BME280;24904;52.208;21.192;2022-10-16T13:25:18;100904.91;;;18.94;64.75
39177;BME280;24904;52.208;21.192;2022-10-16T13:30:28;100912.02;;;18.92;64.85
39177;BME280;24904;52.208;21.192;2022-10-16T13:35:34;100919.19;;;18.91;64.89
39177;BME280;24904;52.208;21.192;2022-10-16T13:40:49;100924.38;;;18.90;65.02
39177;BME280;24904;52.208;21.192;2022-10-16T13:45:59;100931.09;;;18.88;65.10
39177;BME280;24904;52.208;21.192;2022-10-16T13:51:11;100930.70;;;18.87;65.40
39177;BME280;24904;52.208;21.192;2022-10-16T13:56:18;100934.23;;;18.84;65.30
39177;BME280;24904;52.208;21.192;2022-10-16T14:01:25;100942.52;;;18.82;65.57
39177;BME280;24904;52.208;21.192;2022-10-16T14:06:31;100940.90;;;18.79;65.52
39177;BME280;24904;52.208;21.192;2022-10-16T14:11:44;100933.61;;;18.78;65.62
39177;BME280;24904;52.208;21.192;2022-10-16T14:16:50;100922.67;;;18.74;65.83
39177;BME280;24904;52.208;21.192;2022-10-16T14:21:55;100934.38;;;18.79;65.95
39177;BME280;24904;52.208;21.192;2022-10-16T14:27:00;100933.05;;;18.78;66.05
39177;BME280;24904;52.208;21.192;2022-10-16T14:32:21;100939.50;;;18.77;65.99
39177;BME280;24904;52.208;21.192;2022-10-16T14:37:28;100948.96;;;18.77;66.06
39177;BME280;24904;52.208;21.192;2022-10-16T14:42:33;100958.98;;;18.77;66.20
39177;BME280;24904;52.208;21.192;2022-10-16T14:47:49;100963.21;;;18.75;66.15
39177;BME280;24904;52.208;21.192;2022-10-16T14:52:54;100961.56;;;18.74;66.23
39177;BME280;24904;52.208;21.192;2022-10-16T14:58:01;100956.66;;;18.73;66.31
39177;BME280;24904;52.208;21.192;2022-10-16T15:03:09;100958.32;;;18.71;66.34
39177;BME280;24904;52.208;21.192;2022-10-16T15:08:15;100960.48;;;18.70;66.47
39177;BME280;24904;52.208;21.192;2022-10-16T15:13:21;100956.61;;;18.67;66.43
39177;BME280;24904;52.208;21.192;2022-10-16T15:18:29;100960.70;;;18.66;66.47
39177;BME280;24904;52.208;21.192;2022-10-16T15:23:35;100962.95;;;18.64;66.69
39177;BME280;24904;52.208;21.192;2022-10-16T15:28:43;100970.21;;;18.60;66.69
39177;BME280;24904;52.208;21.192;2022-10-16T15:33:51;100975.09;;;18.56;66.74
39177;BME280;24904;52.208;21.192;2022-10-16T15:39:00;100974.86;;;18.50;66.96
39177;BME280;24904;52.208;21.192;2022-10-16T15:44:05;100972.21;;;18.45;67.03
39177;BME280;24904;52.208;21.192;2022-10-16T15:49:11;100971.22;;;18.41;67.32
39177;BME280;24904;52.208;21.192;2022-10-16T15:54:16;100975.19;;;18.34;67.40
39177;BME280;24904;52.208;21.192;2022-10-16T16:07:43;100983.99;;;18.29;67.66
39177;BME280;24904;52.208;21.192;2022-10-16T16:12:48;100998.44;;;18.28;67.87
39177;BME280;24904;52.208;21.192;2022-10-16T16:17:54;101006.05;;;18.23;67.94
39177;BME280;24904;52.208;21.192;2022-10-16T16:22:59;101008.20;;;18.16;68.08
39177;BME280;24904;52.208;21.192;2022-10-16T16:28:03;101016.55;;;18.12;68.30
39177;BME280;24904;52.208;21.192;2022-10-16T16:33:07;101024.61;;;18.09;68.57
39177;BME280;24904;52.208;21.192;2022-10-16T16:38:12;101023.64;;;18.02;68.71
39177;BME280;24904;52.208;21.192;2022-10-16T16:43:16;101022.38;;;17.92;68.93
39177;BME280;24904;52.208;21.192;2022-10-16T16:48:20;101032.73;;;17.89;69.16
39177;BME280;24904;52.208;21.192;2022-10-16T16:53:24;101041.64;;;17.85;69.38
39177;BME280;24904;52.208;21.192;2022-10-16T16:58:29;101051.16;;;17.77;69.89
39177;BME280;24904;52.208;21.192;2022-10-16T17:03:34;101054.45;;;17.68;70.00
39177;BME280;24904;52.208;21.192;2022-10-16T17:08:39;101058.71;;;17.59;70.30
39177;BME280;24904;52.208;21.192;2022-10-16T17:13:44;101062.20;;;17.49;70.48
39177;BME280;24904;52.208;21.192;2022-10-16T17:18:47;101061.39;;;17.38;70.56
39177;BME280;24904;52.208;21.192;2022-10-16T17:23:52;101071.00;;;17.33;70.92
39177;BME280;24904;52.208;21.192;2022-10-16T17:28:57;101078.04;;;17.23;71.26
39177;BME280;24904;52.208;21.192;2022-10-16T17:34:02;101087.50;;;17.15;71.61
39177;BME280;24904;52.208;21.192;2022-10-16T17:39:07;101083.28;;;17.04;71.93
39177;BME280;24904;52.208;21.192;2022-10-16T17:44:11;101083.85;;;16.98;72.01
39177;BME280;24904;52.208;21.192;2022-10-16T17:49:21;101101.06;;;16.96;72.21
39177;BME280;24904;52.208;21.192;2022-10-16T17:54:24;101110.82;;;16.95;72.18
39177;BME280;24904;52.208;21.192;2022-10-16T17:59:27;101116.61;;;16.88;72.39
39177;BME280;24904;52.208;21.192;2022-10-16T18:04:31;101118.39;;;16.80;72.58
39177;BME280;24904;52.208;21.192;2022-10-16T18:09:34;101125.84;;;16.70;73.31
39177;BME280;24904;52.208;21.192;2022-10-16T18:14:37;101133.05;;;16.61;73.86
39177;BME280;24904;52.208;21.192;2022-10-16T18:19:40;101129.10;;;16.52;74.02
39177;BME280;24904;52.208;21.192;2022-10-16T18:24:44;101133.61;;;16.45;74.13
39177;BME280;24904;52.208;21.192;2022-10-16T18:29:47;101136.94;;;16.41;74.36
39177;BME280;24904;52.208;21.192;2022-10-16T18:34:50;101131.56;;;16.37;74.48
39177;BME280;24904;52.208;21.192;2022-10-16T18:39:53;101138.06;;;16.36;74.64
39177;BME280;24904;52.208;21.192;2022-10-16T18:44:57;101140.20;;;16.37;74.78
39177;BME280;24904;52.208;21.192;2022-10-16T18:50:00;101146.21;;;16.38;75.00
39177;BME280;24904;52.208;21.192;2022-10-16T18:55:03;101150.80;;;16.42;75.01
39177;BME280;24904;52.208;21.192;2022-10-16T19:00:08;101158.48;;;16.45;75.05
39177;BME280;24904;52.208;21.192;2022-10-16T19:05:12;101159.20;;;16.47;75.05
39177;BME280;24904;52.208;21.192;2022-10-16T19:10:15;101158.34;;;16.49;74.92
39177;BME280;24904;52.208;21.192;2022-10-16T19:15:18;101166.41;;;16.50;75.08
39177;BME280;24904;52.208;21.192;2022-10-16T19:20:23;101175.44;;;16.49;74.98
39177;BME280;24904;52.208;21.192;2022-10-16T19:25:26;101190.65;;;16.49;74.88
39177;BME280;24904;52.208;21.192;2022-10-16T19:30:29;101202.94;;;16.47;74.97
39177;BME280;24904;52.208;21.192;2022-10-16T19:41:57;101206.88;;;16.42;74.86
39177;BME280;24904;52.208;21.192;2022-10-16T19:47:02;101214.40;;;16.33;74.91
39177;BME280;24904;52.208;21.192;2022-10-16T19:52:07;101221.59;;;16.24;74.80
39177;BME280;24904;52.208;21.192;2022-10-16T19:57:12;101222.43;;;16.12;74.98
39177;BME280;24904;52.208;21.192;2022-10-16T20:02:17;101223.27;;;15.99;75.24
39177;BME280;24904;52.208;21.192;2022-10-16T20:07:22;101228.92;;;15.87;75.39
39177;BME280;24904;52.208;21.192;2022-10-16T20:12:27;101235.02;;;15.79;75.63
39177;BME280;24904;52.208;21.192;2022-10-16T20:17:32;101236.01;;;15.75;75.94
39177;BME280;24904;52.208;21.192;2022-10-16T20:22:37;101248.42;;;15.72;76.11
39177;BME280;24904;52.208;21.192;2022-10-16T20:27:42;101247.23;;;15.64;76.33
39177;BME280;24904;52.208;21.192;2022-10-16T20:32:47;101252.49;;;15.62;76.54
39177;BME280;24904;52.208;21.192;2022-10-16T20:37:53;101258.41;;;15.59;76.63
39177;BME280;24904;52.208;21.192;2022-10-16T20:42:58;101266.77;;;15.58;76.81
39177;BME280;24904;52.208;21.192;2022-10-16T20:48:03;101278.93;;;15.56;76.76
39177;BME280;24904;52.208;21.192;2022-10-16T20:53:08;101282.40;;;15.53;76.90
39177;BME280;24904;52.208;21.192;2022-10-16T20:58:13;101292.99;;;15.52;77.04
39177;BME280;24904;52.208;21.192;2022-10-16T21:03:19;101296.23;;;15.50;77.09
39177;BME280;24904;52.208;21.192;2022-10-16T21:08:24;101296.84;;;15.47;77.22
39177;BME280;24904;52.208;21.192;2022-10-16T21:13:29;101301.63;;;15.40;77.23
39177;BME280;24904;52.208;21.192;2022-10-16T21:18:35;101299.87;;;15.37;77.37
39177;BME280;24904;52.208;21.192;2022-10-16T21:23:40;101297.45;;;15.31;77.40
39177;BME280;24904;52.208;21.192;2022-10-16T21:28:45;101301.38;;;15.27;77.41
39177;BME280;24904;52.208;21.192;2022-10-16T21:33:51;101310.84;;;15.22;77.56
39177;BME280;24904;52.208;21.192;2022-10-16T21:39:01;101313.09;;;15.19;77.69
39177;BME280;24904;52.208;21.192;2022-10-16T21:44:06;101315.35;;;15.13;77.77
39177;BME280;24904;52.208;21.192;2022-10-16T21:49:13;101319.63;;;15.05;77.70
39177;BME280;24904;52.208;21.192;2022-10-16T21:54:21;101321.38;;;14.96;77.78
39177;BME280;24904;52.208;21.192;2022-10-16T21:59:26;101323.41;;;14.84;77.85
39177;BME280;24904;52.208;21.192;2022-10-16T22:04:31;101321.17;;;14.74;77.98
39177;BME280;24904;52.208;21.192;2022-10-16T22:09:36;101325.08;;;14.68;78.30
39177;BME280;24904;52.208;21.192;2022-10-16T22:14:41;101332.27;;;14.62;78.38
39177;BME280;24904;52.208;21.192;2022-10-16T22:19:46;101343.23;;;14.62;78.78
39177;BME280;24904;52.208;21.192;2022-10-16T22:24:51;101353.01;;;14.58;78.68
39177;BME280;24904;52.208;21.192;2022-10-16T22:29:56;101352.63;;;14.45;78.70
39177;BME280;24904;52.208;21.192;2022-10-16T22:35:01;101352.61;;;14.38;78.98
39177;BME280;24904;52.208;21.192;2022-10-16T22:40:09;101353.20;;;14.35;79.20
39177;BME280;24904;52.208;21.192;2022-10-16T22:45:14;101357.89;;;14.31;79.18
39177;BME280;24904;52.208;21.192;2022-10-16T22:50:19;101373.70;;;14.24;79.31
39177;BME280;24904;52.208;21.192;2022-10-16T22:55:24;101377.96;;;14.20;79.48
39177;BME280;24904;52.208;21.192;2022-10-16T23:00:29;101382.26;;;14.16;79.60
39177;BME280;24904;52.208;21.192;2022-10-16T23:05:36;101377.59;;;14.09;79.59
39177;BME280;24904;52.208;21.192;2022-10-16T23:10:43;101376.25;;;14.03;79.65
39177;BME280;24904;52.208;21.192;2022-10-16T23:15:48;101374.15;;;14.00;79.76
39177;BME280;24904;52.208;21.192;2022-10-16T23:20:53;101382.21;;;13.94;79.78
39177;BME280;24904;52.208;21.192;2022-10-16T23:25:58;101387.43;;;13.90;79.73
39177;BME280;24904;52.208;21.192;2022-10-16T23:31:05;101390.02;;;13.82;79.73
39177;BME280;24904;52.208;21.192;2022-10-16T23:36:12;101394.74;;;13.78;79.83
39177;BME280;24904;52.208;21.192;2022-10-16T23:41:18;101395.02;;;13.68;79.73
39177;BME280;24904;52.208;21.192;2022-10-16T23:55:08;101414.17;;;13.53;80.00
